Utah State University
, Logan
Last Weather Update:1/30/2012 11:00:00 PM
Date
ETo
ETc
Rain
Irrigation
Req
Temp
Max
Temp
Min
Temp
Avg
Avg RH
Avg Wind
Avg Solar
inches
inches
incehs
inches
F
F
F
%
%
watts/m2
12/1/2011 0.04" 0.00" 0.01" -0.01" 37.2° 24.1° 30.1° 51.9% 3.7 MPH 76.9w/m2
12/2/2011 0.02" 0.00" 0.04" -0.03" 29.6° 16.9° 23.1° 70.7% 2.6 MPH 57.7w/m2
12/3/2011 0.02" 0.00" 0.00" 0.00" 30.3° 17.7° 22.8° 78.2% 1.1 MPH 71.3w/m2
12/4/2011 0.02" 0.00" 0.05" -0.04" 27.4° 19.3° 22.7° 72.4% 2.6 MPH 56.2w/m2
12/5/2011 0.02" 0.00" 0.00" 0.00" 21.7° 8.6° 14.9° 60.1% 2.9 MPH 90.3w/m2
12/6/2011 0.02" 0.00" 0.00" 0.00" 25.7° 6.7° 15.5° 63.0% 1.8 MPH 76.2w/m2
12/7/2011 0.02" 0.00" 0.00" 0.00" 30.2° 12.7° 20.4° 65.2% 3.4 MPH 85.2w/m2
12/8/2011 0.02" 0.00" 0.00" 0.00" 34.2° 19.4° 26.1° 71.2% 0.6 MPH 84.6w/m2
12/9/2011 0.03" 0.00" 0.00" 0.00" 34.0° 17.8° 25.1° 66.8% 2.6 MPH 83.1w/m2
12/10/2011 0.02" 0.00" 0.00" 0.00" 33.2° 16.5° 24.9° 67.8% 2.5 MPH 84.4w/m2
12/11/2011 0.02" 0.00" 0.00" 0.00" 33.9° 16.3° 25.1° 77.5% 1.1 MPH 77.2w/m2
12/12/2011 0.02" 0.00" 0.00" 0.00" 32.5° 19.2° 25.9° 80.5% 0.7 MPH 57.2w/m2
12/13/2011 0.01" 0.00" 0.01" -0.01" 29.8° 22.3° 26.8° 87.4% 0.8 MPH 31.8w/m2
12/14/2011 0.01" 0.00" 0.00" 0.00" 31.7° 24.3° 28.0° 90.7% 0.7 MPH 26.3w/m2
12/15/2011 0.02" 0.00" 0.00" 0.00" 29.7° 19.4° 23.4° 82.0% 2.2 MPH 70.4w/m2
12/16/2011 0.02" 0.00" 0.00" 0.00" 26.8° 14.5° 20.6° 85.2% 1.2 MPH 64.1w/m2
12/17/2011 0.01" 0.00" 0.00" 0.00" 29.1° 12.0° 18.5° 91.3% 0.6 MPH 60.8w/m2
12/18/2011 0.01" 0.00" 0.00" 0.00" 23.1° 14.7° 20.5° 95.5% 0.6 MPH 24.8w/m2
12/19/2011 0.02" 0.00" 0.00" 0.00" 30.8° 17.4° 23.2° 83.5% 1.0 MPH 77.9w/m2
12/20/2011 0.02" 0.00" 0.00" 0.00" 29.1° 13.2° 22.1° 82.2% 1.6 MPH 74.0w/m2
12/21/2011 0.01" 0.00" 0.04" -0.03" 30.3° 19.6° 25.2° 85.7% 0.9 MPH 29.1w/m2
12/22/2011 0.02" 0.00" 0.00" 0.00" 26.9° 14.0° 19.9° 72.6% 2.5 MPH 78.7w/m2
12/23/2011 0.02" 0.00" 0.00" 0.00" 25.7° 10.1° 16.9° 69.3% 2.6 MPH 79.6w/m2
12/24/2011 0.02" 0.00" 0.00" 0.00" 26.1° 9.0° 17.4° 71.3% 1.3 MPH 78.4w/m2
12/25/2011 0.02" 0.00" 0.00" 0.00" 32.2° 11.2° 21.4° 69.1% 0.8 MPH 77.8w/m2
12/26/2011 0.02" 0.00" 0.00" 0.00" 36.0° 14.7° 24.9° 64.7% 1.2 MPH 75.8w/m2
12/27/2011 0.02" 0.00" 0.00" 0.00" 39.5° 19.4° 28.7° 59.6% 1.4 MPH 62.0w/m2
12/28/2011 0.02" 0.00" 0.00" 0.00" 44.2° 24.3° 34.3° 62.0% 0.6 MPH 30.0w/m2
12/29/2011 0.03" 0.00" 0.00" 0.00" 48.6° 38.9° 43.6° 55.1% 1.3 MPH 30.0w/m2
12/30/2011 0.04" 0.00" 0.00" 0.00" 57.2° 34.8° 47.3° 46.2% 2.0 MPH 48.8w/m2
12/31/2011 0.03" 0.00" 0.00" 0.00" 35.8° 21.3° 30.1° 50.5% 3.3 MPH 57.2w/m2
Totals: 0.65" 0.00" 0.15" -0.12" 57.2° 6.7° 24.8° 71.9% 1.7 MPH 63.8w/m2